Terminal Aerodrome Forecast
Issued by NWS

Home | Current Version | Previous Version | Text Only | Print | Product List | Glossary On
Versions: 1 2 3 4 5 6 7 8 9 10 11 12 13 14
823
FTUS41 KPBZ 242338
TAFBVI
TAF
KBVI 242338Z 2500/2524 19005KT P6SM BKN250
     FM250500 18005KT P6SM VCSH BKN050
     FM251400 22007KT P6SM VCTS BKN040CB
      AMD NOT SKED 2502/2512=

USA.gov is the U.S. government's official web portal to all federal, state and local government web resources and services.